sensor_id;sensor_type;location;lat;lon;timestamp;P1;durP1;ratioP1;P2;durP2;ratioP2
12970;SDS011;6550;48.650;8.774;2023-03-29T00:02:26;0.97;;;0.93;;
12970;SDS011;6550;48.650;8.774;2023-03-29T00:04:56;1.20;;;1.10;;
12970;SDS011;6550;48.650;8.774;2023-03-29T00:07:27;1.60;;;0.97;;
12970;SDS011;6550;48.650;8.774;2023-03-29T00:09:58;1.00;;;0.93;;
12970;SDS011;6550;48.650;8.774;2023-03-29T00:12:26;2.53;;;1.07;;
12970;SDS011;6550;48.650;8.774;2023-03-29T00:14:53;1.15;;;1.00;;
12970;SDS011;6550;48.650;8.774;2023-03-29T00:17:22;1.23;;;0.83;;
12970;SDS011;6550;48.650;8.774;2023-03-29T00:19:49;1.03;;;0.90;;
12970;SDS011;6550;48.650;8.774;2023-03-29T00:22:18;0.90;;;0.90;;
12970;SDS011;6550;48.650;8.774;2023-03-29T00:24:46;1.17;;;1.07;;
12970;SDS011;6550;48.650;8.774;2023-03-29T00:27:14;1.10;;;1.00;;
12970;SDS011;6550;48.650;8.774;2023-03-29T00:29:43;1.73;;;1.00;;
12970;SDS011;6550;48.650;8.774;2023-03-29T00:32:10;1.17;;;0.83;;
12970;SDS011;6550;48.650;8.774;2023-03-29T00:34:37;1.00;;;1.00;;
12970;SDS011;6550;48.650;8.774;2023-03-29T00:37:07;1.00;;;0.90;;
12970;SDS011;6550;48.650;8.774;2023-03-29T00:39:39;1.17;;;0.90;;
12970;SDS011;6550;48.650;8.774;2023-03-29T00:42:11;2.23;;;1.00;;
12970;SDS011;6550;48.650;8.774;2023-03-29T00:47:31;1.77;;;1.00;;
12970;SDS011;6550;48.650;8.774;2023-03-29T00:50:11;0.80;;;0.80;;
12970;SDS011;6550;48.650;8.774;2023-03-29T00:52:50;0.87;;;0.87;;
12970;SDS011;6550;48.650;8.774;2023-03-29T00:55:33;1.20;;;1.10;;
12970;SDS011;6550;48.650;8.774;2023-03-29T00:58:13;1.90;;;1.20;;
12970;SDS011;6550;48.650;8.774;2023-03-29T01:00:51;0.80;;;0.80;;
12970;SDS011;6550;48.650;8.774;2023-03-29T01:03:25;1.37;;;1.20;;
12970;SDS011;6550;48.650;8.774;2023-03-29T01:06:02;0.73;;;0.73;;
12970;SDS011;6550;48.650;8.774;2023-03-29T01:08:36;0.93;;;0.93;;
12970;SDS011;6550;48.650;8.774;2023-03-29T01:11:17;1.30;;;0.90;;
12970;SDS011;6550;48.650;8.774;2023-03-29T01:16:29;1.13;;;1.03;;
12970;SDS011;6550;48.650;8.774;2023-03-29T01:19:00;1.10;;;0.90;;
12970;SDS011;6550;48.650;8.774;2023-03-29T01:21:32;1.97;;;0.90;;
12970;SDS011;6550;48.650;8.774;2023-03-29T01:27:40;0.80;;;0.80;;
12970;SDS011;6550;48.650;8.774;2023-03-29T01:29:55;2.67;;;0.90;;
12970;SDS011;6550;48.650;8.774;2023-03-29T01:32:30;0.80;;;0.80;;
12970;SDS011;6550;48.650;8.774;2023-03-29T01:35:10;0.83;;;0.83;;
12970;SDS011;6550;48.650;8.774;2023-03-29T01:37:54;0.90;;;0.83;;
12970;SDS011;6550;48.650;8.774;2023-03-29T01:40:26;1.77;;;1.00;;
12970;SDS011;6550;48.650;8.774;2023-03-29T01:45:40;0.83;;;0.70;;
12970;SDS011;6550;48.650;8.774;2023-03-29T01:48:18;0.90;;;0.90;;
12970;SDS011;6550;48.650;8.774;2023-03-29T01:50:56;1.30;;;1.10;;
12970;SDS011;6550;48.650;8.774;2023-03-29T01:53:35;1.73;;;1.00;;
12970;SDS011;6550;48.650;8.774;2023-03-29T01:56:23;0.90;;;0.90;;
12970;SDS011;6550;48.650;8.774;2023-03-29T01:58:55;1.90;;;0.90;;
12970;SDS011;6550;48.650;8.774;2023-03-29T02:01:28;1.07;;;1.00;;
12970;SDS011;6550;48.650;8.774;2023-03-29T02:04:00;3.50;;;1.07;;
12970;SDS011;6550;48.650;8.774;2023-03-29T02:06:34;0.93;;;0.60;;
12970;SDS011;6550;48.650;8.774;2023-03-29T02:09:02;0.93;;;0.90;;
12970;SDS011;6550;48.650;8.774;2023-03-29T02:11:30;1.30;;;1.20;;
12970;SDS011;6550;48.650;8.774;2023-03-29T02:13:57;1.10;;;1.00;;
12970;SDS011;6550;48.650;8.774;2023-03-29T02:16:24;0.80;;;0.70;;
12970;SDS011;6550;48.650;8.774;2023-03-29T02:18:55;1.00;;;0.90;;
12970;SDS011;6550;48.650;8.774;2023-03-29T02:21:24;0.80;;;0.80;;
12970;SDS011;6550;48.650;8.774;2023-03-29T02:24:03;1.10;;;1.00;;
12970;SDS011;6550;48.650;8.774;2023-03-29T02:26:34;2.23;;;1.20;;
12970;SDS011;6550;48.650;8.774;2023-03-29T02:29:08;1.20;;;1.05;;
12970;SDS011;6550;48.650;8.774;2023-03-29T02:31:45;0.93;;;0.83;;
12970;SDS011;6550;48.650;8.774;2023-03-29T02:34:33;0.80;;;0.80;;
12970;SDS011;6550;48.650;8.774;2023-03-29T02:37:09;1.20;;;0.90;;
12970;SDS011;6550;48.650;8.774;2023-03-29T02:39:40;0.90;;;0.90;;
12970;SDS011;6550;48.650;8.774;2023-03-29T02:42:07;0.90;;;0.90;;
12970;SDS011;6550;48.650;8.774;2023-03-29T02:44:38;1.07;;;0.97;;
12970;SDS011;6550;48.650;8.774;2023-03-29T02:47:18;1.00;;;1.00;;
12970;SDS011;6550;48.650;8.774;2023-03-29T02:49:49;1.20;;;1.00;;
12970;SDS011;6550;48.650;8.774;2023-03-29T02:52:20;1.20;;;1.10;;
12970;SDS011;6550;48.650;8.774;2023-03-29T02:54:52;1.40;;;1.30;;
12970;SDS011;6550;48.650;8.774;2023-03-29T02:57:21;0.83;;;0.83;;
12970;SDS011;6550;48.650;8.774;2023-03-29T02:59:52;0.83;;;0.80;;
12970;SDS011;6550;48.650;8.774;2023-03-29T03:02:22;1.00;;;0.97;;
12970;SDS011;6550;48.650;8.774;2023-03-29T03:04:53;0.97;;;0.87;;
12970;SDS011;6550;48.650;8.774;2023-03-29T03:07:19;2.20;;;1.30;;
12970;SDS011;6550;48.650;8.774;2023-03-29T03:09:50;0.83;;;0.80;;
12970;SDS011;6550;48.650;8.774;2023-03-29T03:12:17;1.83;;;1.10;;
12970;SDS011;6550;48.650;8.774;2023-03-29T03:14:50;1.50;;;1.20;;
12970;SDS011;6550;48.650;8.774;2023-03-29T03:17:17;1.20;;;1.10;;
12970;SDS011;6550;48.650;8.774;2023-03-29T03:19:44;1.23;;;1.20;;
12970;SDS011;6550;48.650;8.774;2023-03-29T03:22:13;1.20;;;1.10;;
12970;SDS011;6550;48.650;8.774;2023-03-29T03:24:42;1.02;;;1.00;;
12970;SDS011;6550;48.650;8.774;2023-03-29T03:27:11;0.80;;;0.67;;
12970;SDS011;6550;48.650;8.774;2023-03-29T03:29:38;1.20;;;1.10;;
12970;SDS011;6550;48.650;8.774;2023-03-29T03:32:10;1.90;;;1.07;;
12970;SDS011;6550;48.650;8.774;2023-03-29T03:34:37;1.93;;;0.73;;
12970;SDS011;6550;48.650;8.774;2023-03-29T03:37:08;1.20;;;1.10;;
12970;SDS011;6550;48.650;8.774;2023-03-29T03:39:37;1.20;;;1.00;;
12970;SDS011;6550;48.650;8.774;2023-03-29T03:42:04;1.03;;;0.93;;
12970;SDS011;6550;48.650;8.774;2023-03-29T03:44:33;1.30;;;1.17;;
12970;SDS011;6550;48.650;8.774;2023-03-29T03:47:03;1.25;;;0.90;;
12970;SDS011;6550;48.650;8.774;2023-03-29T03:49:30;1.17;;;1.00;;
12970;SDS011;6550;48.650;8.774;2023-03-29T03:51:58;0.90;;;0.90;;
12970;SDS011;6550;48.650;8.774;2023-03-29T03:54:25;0.90;;;0.90;;
12970;SDS011;6550;48.650;8.774;2023-03-29T03:56:53;1.30;;;1.20;;
12970;SDS011;6550;48.650;8.774;2023-03-29T03:59:20;1.27;;;1.00;;
12970;SDS011;6550;48.650;8.774;2023-03-29T04:01:47;0.97;;;0.90;;
12970;SDS011;6550;48.650;8.774;2023-03-29T04:04:14;1.00;;;0.98;;
12970;SDS011;6550;48.650;8.774;2023-03-29T04:06:41;1.17;;;1.00;;
12970;SDS011;6550;48.650;8.774;2023-03-29T04:09:09;1.50;;;1.00;;
12970;SDS011;6550;48.650;8.774;2023-03-29T04:11:36;1.00;;;1.00;;
12970;SDS011;6550;48.650;8.774;2023-03-29T04:14:03;1.47;;;1.20;;
12970;SDS011;6550;48.650;8.774;2023-03-29T04:16:29;0.97;;;0.97;;
12970;SDS011;6550;48.650;8.774;2023-03-29T04:18:56;1.10;;;1.00;;
12970;SDS011;6550;48.650;8.774;2023-03-29T04:21:23;1.00;;;0.90;;
12970;SDS011;6550;48.650;8.774;2023-03-29T04:23:50;1.03;;;0.90;;
12970;SDS011;6550;48.650;8.774;2023-03-29T04:26:19;1.03;;;1.00;;
12970;SDS011;6550;48.650;8.774;2023-03-29T04:28:46;1.13;;;1.03;;
12970;SDS011;6550;48.650;8.774;2023-03-29T04:31:17;0.93;;;0.93;;
12970;SDS011;6550;48.650;8.774;2023-03-29T04:33:44;1.20;;;1.10;;
12970;SDS011;6550;48.650;8.774;2023-03-29T04:36:12;1.20;;;1.10;;
12970;SDS011;6550;48.650;8.774;2023-03-29T04:38:41;1.23;;;0.90;;
12970;SDS011;6550;48.650;8.774;2023-03-29T04:41:13;4.53;;;1.30;;
12970;SDS011;6550;48.650;8.774;2023-03-29T04:43:40;1.63;;;1.10;;
12970;SDS011;6550;48.650;8.774;2023-03-29T04:46:12;0.90;;;0.90;;
12970;SDS011;6550;48.650;8.774;2023-03-29T04:48:42;1.10;;;1.00;;
12970;SDS011;6550;48.650;8.774;2023-03-29T04:51:08;2.53;;;0.83;;
12970;SDS011;6550;48.650;8.774;2023-03-29T04:53:36;1.43;;;1.17;;
12970;SDS011;6550;48.650;8.774;2023-03-29T04:56:05;1.03;;;1.00;;
12970;SDS011;6550;48.650;8.774;2023-03-29T04:58:35;1.17;;;1.00;;
12970;SDS011;6550;48.650;8.774;2023-03-29T05:01:02;1.47;;;1.10;;
12970;SDS011;6550;48.650;8.774;2023-03-29T05:03:29;2.03;;;1.40;;
12970;SDS011;6550;48.650;8.774;2023-03-29T05:06:02;1.10;;;1.00;;
12970;SDS011;6550;48.650;8.774;2023-03-29T05:08:32;1.20;;;1.10;;
12970;SDS011;6550;48.650;8.774;2023-03-29T05:11:06;1.30;;;1.20;;
12970;SDS011;6550;48.650;8.774;2023-03-29T05:13:36;1.17;;;1.07;;
12970;SDS011;6550;48.650;8.774;2023-03-29T05:16:04;1.20;;;1.00;;
12970;SDS011;6550;48.650;8.774;2023-03-29T05:18:34;1.00;;;1.00;;
12970;SDS011;6550;48.650;8.774;2023-03-29T05:21:00;1.03;;;0.93;;
12970;SDS011;6550;48.650;8.774;2023-03-29T05:23:29;1.10;;;1.00;;
12970;SDS011;6550;48.650;8.774;2023-03-29T05:25:56;1.13;;;1.03;;
12970;SDS011;6550;48.650;8.774;2023-03-29T05:28:23;2.00;;;1.10;;
12970;SDS011;6550;48.650;8.774;2023-03-29T05:31:00;0.90;;;0.90;;
12970;SDS011;6550;48.650;8.774;2023-03-29T05:33:31;2.10;;;1.10;;
12970;SDS011;6550;48.650;8.774;2023-03-29T05:36:02;1.50;;;1.10;;
12970;SDS011;6550;48.650;8.774;2023-03-29T05:38:33;2.23;;;1.00;;
12970;SDS011;6550;48.650;8.774;2023-03-29T05:41:03;1.20;;;1.07;;
12970;SDS011;6550;48.650;8.774;2023-03-29T05:43:31;1.00;;;0.90;;
12970;SDS011;6550;48.650;8.774;2023-03-29T05:45:58;1.17;;;1.00;;
12970;SDS011;6550;48.650;8.774;2023-03-29T05:48:26;1.30;;;1.00;;
12970;SDS011;6550;48.650;8.774;2023-03-29T05:50:54;1.83;;;0.80;;
12970;SDS011;6550;48.650;8.774;2023-03-29T05:53:22;1.17;;;1.07;;
12970;SDS011;6550;48.650;8.774;2023-03-29T05:55:53;0.93;;;0.87;;
12970;SDS011;6550;48.650;8.774;2023-03-29T05:58:20;1.23;;;0.90;;
12970;SDS011;6550;48.650;8.774;2023-03-29T06:00:48;0.63;;;0.63;;
12970;SDS011;6550;48.650;8.774;2023-03-29T06:03:18;0.97;;;0.87;;
12970;SDS011;6550;48.650;8.774;2023-03-29T06:05:54;0.90;;;0.90;;
12970;SDS011;6550;48.650;8.774;2023-03-29T06:08:25;2.43;;;1.03;;
12970;SDS011;6550;48.650;8.774;2023-03-29T06:11:03;0.80;;;0.80;;
12970;SDS011;6550;48.650;8.774;2023-03-29T06:13:32;1.27;;;1.17;;
12970;SDS011;6550;48.650;8.774;2023-03-29T06:15:59;1.13;;;1.10;;
12970;SDS011;6550;48.650;8.774;2023-03-29T06:18:29;1.20;;;1.00;;
12970;SDS011;6550;48.650;8.774;2023-03-29T06:20:56;1.20;;;1.03;;
12970;SDS011;6550;48.650;8.774;2023-03-29T06:23:28;1.70;;;1.00;;
12970;SDS011;6550;48.650;8.774;2023-03-29T06:25:55;1.17;;;1.07;;
12970;SDS011;6550;48.650;8.774;2023-03-29T06:28:23;1.03;;;0.90;;
12970;SDS011;6550;48.650;8.774;2023-03-29T06:30:55;1.73;;;0.93;;
12970;SDS011;6550;48.650;8.774;2023-03-29T06:33:28;1.90;;;0.93;;
12970;SDS011;6550;48.650;8.774;2023-03-29T06:35:55;0.90;;;0.90;;
12970;SDS011;6550;48.650;8.774;2023-03-29T06:38:23;0.83;;;0.83;;
12970;SDS011;6550;48.650;8.774;2023-03-29T06:41:03;1.10;;;1.00;;
12970;SDS011;6550;48.650;8.774;2023-03-29T06:43:33;1.10;;;0.90;;
12970;SDS011;6550;48.650;8.774;2023-03-29T06:46:02;1.47;;;1.00;;
12970;SDS011;6550;48.650;8.774;2023-03-29T06:48:30;1.73;;;1.10;;
12970;SDS011;6550;48.650;8.774;2023-03-29T06:50:57;0.80;;;0.70;;
12970;SDS011;6550;48.650;8.774;2023-03-29T06:53:27;1.00;;;0.80;;
12970;SDS011;6550;48.650;8.774;2023-03-29T06:55:54;0.83;;;0.70;;
12970;SDS011;6550;48.650;8.774;2023-03-29T06:58:23;0.73;;;0.70;;
12970;SDS011;6550;48.650;8.774;2023-03-29T07:00:49;1.37;;;1.00;;
12970;SDS011;6550;48.650;8.774;2023-03-29T07:03:19;0.70;;;0.70;;
12970;SDS011;6550;48.650;8.774;2023-03-29T07:05:48;1.30;;;0.90;;
12970;SDS011;6550;48.650;8.774;2023-03-29T07:08:17;1.37;;;0.90;;
12970;SDS011;6550;48.650;8.774;2023-03-29T07:10:49;1.57;;;0.90;;
12970;SDS011;6550;48.650;8.774;2023-03-29T07:13:18;0.90;;;0.90;;
12970;SDS011;6550;48.650;8.774;2023-03-29T07:15:45;1.00;;;0.70;;
12970;SDS011;6550;48.650;8.774;2023-03-29T07:18:12;0.60;;;0.60;;
12970;SDS011;6550;48.650;8.774;2023-03-29T07:20:42;0.80;;;0.80;;
12970;SDS011;6550;48.650;8.774;2023-03-29T07:23:09;2.80;;;0.80;;
12970;SDS011;6550;48.650;8.774;2023-03-29T07:25:37;1.60;;;1.00;;
12970;SDS011;6550;48.650;8.774;2023-03-29T07:28:06;0.90;;;0.80;;
12970;SDS011;6550;48.650;8.774;2023-03-29T07:30:36;1.10;;;1.00;;
12970;SDS011;6550;48.650;8.774;2023-03-29T07:33:03;0.93;;;0.87;;
12970;SDS011;6550;48.650;8.774;2023-03-29T07:35:30;1.17;;;0.87;;
12970;SDS011;6550;48.650;8.774;2023-03-29T07:37:59;1.27;;;1.10;;
12970;SDS011;6550;48.650;8.774;2023-03-29T07:40:29;1.20;;;1.10;;
12970;SDS011;6550;48.650;8.774;2023-03-29T07:42:56;1.63;;;1.10;;
12970;SDS011;6550;48.650;8.774;2023-03-29T07:45:24;1.20;;;1.10;;
12970;SDS011;6550;48.650;8.774;2023-03-29T07:47:56;1.23;;;1.13;;
12970;SDS011;6550;48.650;8.774;2023-03-29T07:50:27;1.77;;;1.30;;
12970;SDS011;6550;48.650;8.774;2023-03-29T07:52:57;1.20;;;1.10;;
12970;SDS011;6550;48.650;8.774;2023-03-29T07:55:28;2.63;;;1.30;;
12970;SDS011;6550;48.650;8.774;2023-03-29T07:57:54;2.13;;;1.20;;
12970;SDS011;6550;48.650;8.774;2023-03-29T08:00:21;1.30;;;1.20;;
12970;SDS011;6550;48.650;8.774;2023-03-29T08:02:50;3.40;;;1.43;;
12970;SDS011;6550;48.650;8.774;2023-03-29T08:05:18;1.77;;;1.50;;
12970;SDS011;6550;48.650;8.774;2023-03-29T08:08:03;1.77;;;1.40;;
12970;SDS011;6550;48.650;8.774;2023-03-29T08:10:30;1.83;;;1.43;;
12970;SDS011;6550;48.650;8.774;2023-03-29T08:12:59;2.53;;;1.50;;
12970;SDS011;6550;48.650;8.774;2023-03-29T08:15:28;3.00;;;2.03;;
12970;SDS011;6550;48.650;8.774;2023-03-29T08:18:03;1.70;;;1.60;;
12970;SDS011;6550;48.650;8.774;2023-03-29T08:20:30;2.07;;;1.70;;
12970;SDS011;6550;48.650;8.774;2023-03-29T08:23:01;3.17;;;2.10;;
12970;SDS011;6550;48.650;8.774;2023-03-29T08:25:31;2.27;;;1.80;;
12970;SDS011;6550;48.650;8.774;2023-03-29T08:27:58;2.20;;;1.80;;
12970;SDS011;6550;48.650;8.774;2023-03-29T08:30:27;2.73;;;2.00;;
12970;SDS011;6550;48.650;8.774;2023-03-29T08:32:53;2.00;;;1.80;;
12970;SDS011;6550;48.650;8.774;2023-03-29T08:35:20;2.93;;;2.10;;
12970;SDS011;6550;48.650;8.774;2023-03-29T08:37:48;2.20;;;1.70;;
12970;SDS011;6550;48.650;8.774;2023-03-29T08:40:24;2.00;;;1.73;;
12970;SDS011;6550;48.650;8.774;2023-03-29T08:50:33;2.80;;;2.10;;
12970;SDS011;6550;48.650;8.774;2023-03-29T08:53:04;2.57;;;2.10;;
12970;SDS011;6550;48.650;8.774;2023-03-29T08:55:39;2.43;;;1.80;;
12970;SDS011;6550;48.650;8.774;2023-03-29T08:58:20;2.07;;;1.80;;
12970;SDS011;6550;48.650;8.774;2023-03-29T09:00:52;1.63;;;1.53;;
12970;SDS011;6550;48.650;8.774;2023-03-29T09:03:22;2.00;;;1.70;;
12970;SDS011;6550;48.650;8.774;2023-03-29T09:05:55;2.00;;;1.43;;
12970;SDS011;6550;48.650;8.774;2023-03-29T09:08:47;2.20;;;1.50;;
12970;SDS011;6550;48.650;8.774;2023-03-29T09:19:18;1.27;;;1.13;;
12970;SDS011;6550;48.650;8.774;2023-03-29T09:21:49;1.40;;;1.27;;
12970;SDS011;6550;48.650;8.774;2023-03-29T09:32:23;2.20;;;1.33;;
12970;SDS011;6550;48.650;8.774;2023-03-29T09:34:59;1.50;;;1.40;;
12970;SDS011;6550;48.650;8.774;2023-03-29T09:37:39;1.73;;;1.30;;
12970;SDS011;6550;48.650;8.774;2023-03-29T09:40:11;1.77;;;1.40;;
12970;SDS011;6550;48.650;8.774;2023-03-29T09:42:42;3.73;;;1.57;;
12970;SDS011;6550;48.650;8.774;2023-03-29T09:45:10;3.30;;;1.50;;
12970;SDS011;6550;48.650;8.774;2023-03-29T09:47:38;3.27;;;1.40;;
12970;SDS011;6550;48.650;8.774;2023-03-29T09:50:21;2.13;;;1.10;;
12970;SDS011;6550;48.650;8.774;2023-03-29T09:52:57;4.00;;;1.50;;
12970;SDS011;6550;48.650;8.774;2023-03-29T09:55:29;1.50;;;1.27;;
12970;SDS011;6550;48.650;8.774;2023-03-29T09:57:59;1.33;;;1.23;;
12970;SDS011;6550;48.650;8.774;2023-03-29T10:00:27;2.80;;;1.30;;
12970;SDS011;6550;48.650;8.774;2023-03-29T10:02:55;2.23;;;1.40;;
12970;SDS011;6550;48.650;8.774;2023-03-29T10:05:26;1.40;;;1.10;;
12970;SDS011;6550;48.650;8.774;2023-03-29T10:07:58;2.57;;;1.50;;
12970;SDS011;6550;48.650;8.774;2023-03-29T10:10:30;2.17;;;1.30;;
12970;SDS011;6550;48.650;8.774;2023-03-29T10:13:02;1.90;;;1.10;;
12970;SDS011;6550;48.650;8.774;2023-03-29T10:15:38;1.70;;;1.50;;
12970;SDS011;6550;48.650;8.774;2023-03-29T10:18:06;1.63;;;1.23;;
12970;SDS011;6550;48.650;8.774;2023-03-29T10:20:38;3.43;;;1.43;;
12970;SDS011;6550;48.650;8.774;2023-03-29T10:23:07;4.93;;;1.77;;
12970;SDS011;6550;48.650;8.774;2023-03-29T10:25:42;2.27;;;1.40;;
12970;SDS011;6550;48.650;8.774;2023-03-29T10:28:14;1.20;;;1.10;;
12970;SDS011;6550;48.650;8.774;2023-03-29T10:30:50;2.97;;;1.40;;
12970;SDS011;6550;48.650;8.774;2023-03-29T10:33:22;1.88;;;1.42;;
12970;SDS011;6550;48.650;8.774;2023-03-29T10:35:53;3.50;;;1.30;;
12970;SDS011;6550;48.650;8.774;2023-03-29T10:38:23;1.97;;;0.90;;
12970;SDS011;6550;48.650;8.774;2023-03-29T10:40:53;1.63;;;1.30;;
12970;SDS011;6550;48.650;8.774;2023-03-29T10:46:39;1.50;;;1.20;;
12970;SDS011;6550;48.650;8.774;2023-03-29T10:49:15;1.77;;;0.90;;
12970;SDS011;6550;48.650;8.774;2023-03-29T10:51:49;1.30;;;1.00;;
12970;SDS011;6550;48.650;8.774;2023-03-29T10:54:20;2.23;;;0.90;;
12970;SDS011;6550;48.650;8.774;2023-03-29T10:56:51;1.20;;;0.93;;
12970;SDS011;6550;48.650;8.774;2023-03-29T10:59:28;1.27;;;0.97;;
12970;SDS011;6550;48.650;8.774;2023-03-29T11:12:49;1.87;;;1.10;;
12970;SDS011;6550;48.650;8.774;2023-03-29T11:15:44;1.17;;;0.90;;
12970;SDS011;6550;48.650;8.774;2023-03-29T11:23:58;5.37;;;1.37;;
12970;SDS011;6550;48.650;8.774;2023-03-29T11:26:39;5.40;;;1.60;;
12970;SDS011;6550;48.650;8.774;2023-03-29T11:40:12;3.33;;;1.50;;
12970;SDS011;6550;48.650;8.774;2023-03-29T11:42:47;5.93;;;1.30;;
12970;SDS011;6550;48.650;8.774;2023-03-29T11:45:24;3.30;;;1.27;;
12970;SDS011;6550;48.650;8.774;2023-03-29T11:48:05;4.70;;;1.47;;
12970;SDS011;6550;48.650;8.774;2023-03-29T11:50:44;5.87;;;1.53;;
12970;SDS011;6550;48.650;8.774;2023-03-29T11:56:24;3.10;;;1.57;;
12970;SDS011;6550;48.650;8.774;2023-03-29T11:58:58;5.53;;;1.80;;
12970;SDS011;6550;48.650;8.774;2023-03-29T12:01:34;2.43;;;1.63;;
12970;SDS011;6550;48.650;8.774;2023-03-29T12:04:10;2.40;;;1.53;;
12970;SDS011;6550;48.650;8.774;2023-03-29T12:06:49;2.40;;;1.50;;
12970;SDS011;6550;48.650;8.774;2023-03-29T12:15:16;6.27;;;1.50;;
12970;SDS011;6550;48.650;8.774;2023-03-29T12:17:50;2.07;;;1.57;;
12970;SDS011;6550;48.650;8.774;2023-03-29T12:20:24;2.93;;;1.87;;
12970;SDS011;6550;48.650;8.774;2023-03-29T12:22:58;1.80;;;1.60;;
12970;SDS011;6550;48.650;8.774;2023-03-29T12:31:13;2.60;;;1.60;;
12970;SDS011;6550;48.650;8.774;2023-03-29T12:39:25;3.33;;;1.38;;
12970;SDS011;6550;48.650;8.774;2023-03-29T12:42:03;8.10;;;1.27;;
12970;SDS011;6550;48.650;8.774;2023-03-29T12:44:38;10.37;;;1.63;;
12970;SDS011;6550;48.650;8.774;2023-03-29T12:47:09;2.37;;;1.73;;
12970;SDS011;6550;48.650;8.774;2023-03-29T12:49:46;3.87;;;1.30;;
12970;SDS011;6550;48.650;8.774;2023-03-29T12:55:00;1.97;;;1.50;;
12970;SDS011;6550;48.650;8.774;2023-03-29T12:57:39;1.60;;;1.30;;
12970;SDS011;6550;48.650;8.774;2023-03-29T13:00:19;2.63;;;1.67;;
12970;SDS011;6550;48.650;8.774;2023-03-29T13:05:59;4.63;;;1.43;;
12970;SDS011;6550;48.650;8.774;2023-03-29T13:08:42;2.67;;;1.53;;
12970;SDS011;6550;48.650;8.774;2023-03-29T13:11:22;5.47;;;1.73;;
12970;SDS011;6550;48.650;8.774;2023-03-29T13:13:58;2.30;;;1.50;;
12970;SDS011;6550;48.650;8.774;2023-03-29T13:16:29;15.27;;;2.20;;
12970;SDS011;6550;48.650;8.774;2023-03-29T13:25:18;14.77;;;2.53;;
12970;SDS011;6550;48.650;8.774;2023-03-29T13:39:06;5.93;;;1.90;;
12970;SDS011;6550;48.650;8.774;2023-03-29T13:41:47;7.93;;;1.90;;
12970;SDS011;6550;48.650;8.774;2023-03-29T13:50:01;8.10;;;1.93;;
12970;SDS011;6550;48.650;8.774;2023-03-29T13:55:25;8.97;;;1.97;;
12970;SDS011;6550;48.650;8.774;2023-03-29T13:58:11;8.23;;;2.53;;
12970;SDS011;6550;48.650;8.774;2023-03-29T14:00:56;12.63;;;3.07;;
12970;SDS011;6550;48.650;8.774;2023-03-29T14:03:39;12.67;;;2.27;;
12970;SDS011;6550;48.650;8.774;2023-03-29T14:06:13;13.83;;;2.00;;
12970;SDS011;6550;48.650;8.774;2023-03-29T14:08:43;6.77;;;1.93;;
12970;SDS011;6550;48.650;8.774;2023-03-29T14:13:59;8.30;;;2.08;;
12970;SDS011;6550;48.650;8.774;2023-03-29T14:16:33;5.53;;;1.90;;
12970;SDS011;6550;48.650;8.774;2023-03-29T14:19:06;3.73;;;1.70;;
12970;SDS011;6550;48.650;8.774;2023-03-29T14:21:46;2.47;;;1.50;;
12970;SDS011;6550;48.650;8.774;2023-03-29T14:24:22;2.53;;;1.60;;
12970;SDS011;6550;48.650;8.774;2023-03-29T14:26:52;2.23;;;1.30;;
12970;SDS011;6550;48.650;8.774;2023-03-29T14:29:19;2.80;;;1.30;;
12970;SDS011;6550;48.650;8.774;2023-03-29T14:31:50;2.75;;;1.30;;
12970;SDS011;6550;48.650;8.774;2023-03-29T14:34:19;2.77;;;1.20;;
12970;SDS011;6550;48.650;8.774;2023-03-29T14:36:50;4.23;;;1.60;;
12970;SDS011;6550;48.650;8.774;2023-03-29T14:39:20;1.10;;;1.10;;
12970;SDS011;6550;48.650;8.774;2023-03-29T14:41:57;1.77;;;1.40;;
12970;SDS011;6550;48.650;8.774;2023-03-29T14:44:25;3.55;;;1.77;;
12970;SDS011;6550;48.650;8.774;2023-03-29T14:46:57;3.83;;;1.83;;
12970;SDS011;6550;48.650;8.774;2023-03-29T14:49:24;4.73;;;1.20;;
12970;SDS011;6550;48.650;8.774;2023-03-29T14:51:54;2.70;;;1.40;;
12970;SDS011;6550;48.650;8.774;2023-03-29T14:54:25;5.00;;;1.40;;
12970;SDS011;6550;48.650;8.774;2023-03-29T14:57:04;2.97;;;1.30;;
12970;SDS011;6550;48.650;8.774;2023-03-29T14:59:35;3.50;;;1.20;;
12970;SDS011;6550;48.650;8.774;2023-03-29T15:02:03;3.75;;;1.23;;
12970;SDS011;6550;48.650;8.774;2023-03-29T15:04:53;2.03;;;1.10;;
12970;SDS011;6550;48.650;8.774;2023-03-29T15:07:28;3.23;;;1.20;;
12970;SDS011;6550;48.650;8.774;2023-03-29T15:09:58;1.67;;;1.20;;
12970;SDS011;6550;48.650;8.774;2023-03-29T15:12:28;2.07;;;1.37;;
12970;SDS011;6550;48.650;8.774;2023-03-29T15:14:58;4.87;;;1.33;;
12970;SDS011;6550;48.650;8.774;2023-03-29T15:17:37;3.67;;;1.27;;
12970;SDS011;6550;48.650;8.774;2023-03-29T15:23:21;3.00;;;1.00;;
12970;SDS011;6550;48.650;8.774;2023-03-29T15:25:57;3.00;;;1.20;;
12970;SDS011;6550;48.650;8.774;2023-03-29T15:28:46;2.97;;;1.40;;
12970;SDS011;6550;48.650;8.774;2023-03-29T15:31:23;1.43;;;1.30;;
12970;SDS011;6550;48.650;8.774;2023-03-29T15:34:10;1.92;;;1.42;;
12970;SDS011;6550;48.650;8.774;2023-03-29T15:36:42;1.17;;;1.07;;
12970;SDS011;6550;48.650;8.774;2023-03-29T15:39:14;1.90;;;1.20;;
12970;SDS011;6550;48.650;8.774;2023-03-29T15:41:45;1.40;;;0.83;;
12970;SDS011;6550;48.650;8.774;2023-03-29T15:44:14;2.30;;;1.10;;
12970;SDS011;6550;48.650;8.774;2023-03-29T15:46:44;2.78;;;1.27;;
12970;SDS011;6550;48.650;8.774;2023-03-29T15:49:13;3.40;;;1.20;;
12970;SDS011;6550;48.650;8.774;2023-03-29T15:51:42;2.33;;;1.33;;
12970;SDS011;6550;48.650;8.774;2023-03-29T15:54:09;1.40;;;1.10;;
12970;SDS011;6550;48.650;8.774;2023-03-29T15:56:37;2.60;;;1.13;;
12970;SDS011;6550;48.650;8.774;2023-03-29T15:59:20;4.00;;;1.47;;
12970;SDS011;6550;48.650;8.774;2023-03-29T16:01:49;3.30;;;1.40;;
12970;SDS011;6550;48.650;8.774;2023-03-29T16:04:20;1.67;;;1.07;;
12970;SDS011;6550;48.650;8.774;2023-03-29T16:06:53;2.83;;;1.40;;
12970;SDS011;6550;48.650;8.774;2023-03-29T16:09:21;2.47;;;1.17;;
12970;SDS011;6550;48.650;8.774;2023-03-29T16:11:50;6.07;;;1.73;;
12970;SDS011;6550;48.650;8.774;2023-03-29T16:14:21;6.20;;;1.63;;
12970;SDS011;6550;48.650;8.774;2023-03-29T16:17:01;5.97;;;1.50;;
12970;SDS011;6550;48.650;8.774;2023-03-29T16:19:29;4.10;;;1.30;;
12970;SDS011;6550;48.650;8.774;2023-03-29T16:21:57;5.00;;;1.27;;
12970;SDS011;6550;48.650;8.774;2023-03-29T16:24:26;6.17;;;1.40;;
12970;SDS011;6550;48.650;8.774;2023-03-29T16:26:55;5.00;;;1.30;;
12970;SDS011;6550;48.650;8.774;2023-03-29T16:29:22;1.43;;;1.10;;
12970;SDS011;6550;48.650;8.774;2023-03-29T16:31:49;3.23;;;0.93;;
12970;SDS011;6550;48.650;8.774;2023-03-29T16:34:19;6.07;;;1.53;;
12970;SDS011;6550;48.650;8.774;2023-03-29T16:36:48;2.72;;;1.20;;
12970;SDS011;6550;48.650;8.774;2023-03-29T16:39:18;3.30;;;1.43;;
12970;SDS011;6550;48.650;8.774;2023-03-29T16:41:45;6.37;;;1.73;;
12970;SDS011;6550;48.650;8.774;2023-03-29T16:44:16;1.33;;;0.90;;
12970;SDS011;6550;48.650;8.774;2023-03-29T16:46:48;4.80;;;0.83;;
12970;SDS011;6550;48.650;8.774;2023-03-29T16:49:23;3.70;;;1.30;;
12970;SDS011;6550;48.650;8.774;2023-03-29T16:51:49;2.50;;;1.37;;
12970;SDS011;6550;48.650;8.774;2023-03-29T16:54:16;3.87;;;1.10;;
12970;SDS011;6550;48.650;8.774;2023-03-29T16:56:43;5.03;;;1.27;;
12970;SDS011;6550;48.650;8.774;2023-03-29T16:59:13;5.33;;;1.33;;
12970;SDS011;6550;48.650;8.774;2023-03-29T17:01:40;1.87;;;1.20;;
12970;SDS011;6550;48.650;8.774;2023-03-29T17:04:07;3.17;;;1.20;;
12970;SDS011;6550;48.650;8.774;2023-03-29T17:06:36;1.20;;;1.10;;
12970;SDS011;6550;48.650;8.774;2023-03-29T17:09:03;1.63;;;1.20;;
12970;SDS011;6550;48.650;8.774;2023-03-29T17:11:31;3.70;;;1.10;;
12970;SDS011;6550;48.650;8.774;2023-03-29T17:14:01;2.67;;;1.30;;
12970;SDS011;6550;48.650;8.774;2023-03-29T17:16:28;3.17;;;1.37;;
12970;SDS011;6550;48.650;8.774;2023-03-29T17:18:58;3.20;;;1.30;;
12970;SDS011;6550;48.650;8.774;2023-03-29T17:21:25;1.57;;;1.10;;
12970;SDS011;6550;48.650;8.774;2023-03-29T17:23:57;4.07;;;1.07;;
12970;SDS011;6550;48.650;8.774;2023-03-29T17:26:24;1.77;;;1.40;;
12970;SDS011;6550;48.650;8.774;2023-03-29T17:28:53;2.60;;;1.30;;
12970;SDS011;6550;48.650;8.774;2023-03-29T17:31:20;1.97;;;1.20;;